createdAt,value
2018-07-17T00:00:00.340Z,5.35
2018-07-17T00:00:12.788Z,5.35
2018-07-17T00:00:25.408Z,5.35
2018-07-17T00:00:37.863Z,5.35
2018-07-17T00:00:50.320Z,5.35
2018-07-17T00:01:02.739Z,5.35
2018-07-17T00:01:15.169Z,5.35
2018-07-17T00:01:27.644Z,5.35
2018-07-17T00:01:40.066Z,5.35
2018-07-17T00:01:52.731Z,5.35
2018-07-17T00:02:05.226Z,5.35
2018-07-17T00:02:17.661Z,5.35
2018-07-17T00:02:30.246Z,5.35
2018-07-17T00:02:42.661Z,5.35
2018-07-17T00:02:55.088Z,5.35
2018-07-17T00:03:07.566Z,5.35
2018-07-17T00:03:19.967Z,5.35
2018-07-17T00:03:32.415Z,5.35
2018-07-17T00:03:44.825Z,5.35
2018-07-17T00:03:57.274Z,5.35
2018-07-17T00:04:09.668Z,5.35
2018-07-17T00:04:22.081Z,5.35
2018-07-17T00:04:34.470Z,5.35
2018-07-17T00:04:46.870Z,5.35
2018-07-17T00:04:59.503Z,5.35
2018-07-17T00:05:11.919Z,5.35
2018-07-17T00:05:24.379Z,5.35
2018-07-17T00:05:36.799Z,5.7
2018-07-17T00:05:49.200Z,5.7
2018-07-17T00:06:01.626Z,5.7
2018-07-17T00:06:14.026Z,5.7
2018-07-17T00:06:26.434Z,5.7
2018-07-17T00:06:38.850Z,5.7
2018-07-17T00:06:51.265Z,5.7
2018-07-17T00:07:03.685Z,5.7
2018-07-17T00:07:16.095Z,5.7
2018-07-17T00:07:28.623Z,5.7
2018-07-17T00:07:41.028Z,5.7
2018-07-17T00:07:53.416Z,5.7
2018-07-17T00:08:05.828Z,5.7
2018-07-17T00:08:18.390Z,5.7
2018-07-17T00:08:30.823Z,5.7
2018-07-17T00:08:43.252Z,5.7
2018-07-17T00:08:55.660Z,5.7
2018-07-17T00:09:08.068Z,5.7
2018-07-17T00:09:20.471Z,5.7
2018-07-17T00:09:33.078Z,5.7
2018-07-17T00:09:46.521Z,5.7
2018-07-17T00:09:59.040Z,5.7
2018-07-17T00:10:11.453Z,5.7
2018-07-17T00:10:23.851Z,5.7
2018-07-17T00:10:36.277Z,5.7
2018-07-17T00:10:48.731Z,5.7
2018-07-17T00:11:01.155Z,5.7
2018-07-17T00:11:13.722Z,5.7
2018-07-17T00:11:26.188Z,5.7
2018-07-17T00:11:38.576Z,5.7
2018-07-17T00:11:51.000Z,5.7
2018-07-17T00:12:03.474Z,5.7
2018-07-17T00:12:15.960Z,5.7
2018-07-17T00:12:28.438Z,5.7
2018-07-17T00:12:41.215Z,5.7
2018-07-17T00:12:54.837Z,5.7
2018-07-17T00:13:07.389Z,5.7
2018-07-17T00:13:19.810Z,5.7
2018-07-17T00:13:32.281Z,5.7
2018-07-17T00:13:44.712Z,5.7
2018-07-17T00:13:57.128Z,5.7
2018-07-17T00:14:09.532Z,5.7
2018-07-17T00:14:21.924Z,5.7
2018-07-17T00:14:34.323Z,5.7
2018-07-17T00:14:46.725Z,5.7
2018-07-17T00:14:59.134Z,5.7
2018-07-17T00:15:11.604Z,5.7
2018-07-17T00:15:24.012Z,5.7
2018-07-17T00:15:36.452Z,5.75
2018-07-17T00:15:48.841Z,5.75
2018-07-17T00:16:01.270Z,5.75
2018-07-17T00:16:13.749Z,5.75
2018-07-17T00:16:26.175Z,5.75
2018-07-17T00:16:38.650Z,5.75
2018-07-17T00:16:51.057Z,5.75
2018-07-17T00:17:03.509Z,5.75
2018-07-17T00:17:15.920Z,5.75
2018-07-17T00:17:28.322Z,5.75
2018-07-17T00:17:40.728Z,5.75
2018-07-17T00:17:53.188Z,5.75
2018-07-17T00:18:05.613Z,5.75
2018-07-17T00:18:18.019Z,5.75
2018-07-17T00:18:30.422Z,5.75
2018-07-17T00:18:42.839Z,5.75
2018-07-17T00:18:55.226Z,5.75
2018-07-17T00:19:07.620Z,5.75
2018-07-17T00:19:20.050Z,5.75
2018-07-17T00:19:32.450Z,5.75
2018-07-17T00:19:44.873Z,5.75
2018-07-17T00:19:57.277Z,5.75
2018-07-17T00:20:09.687Z,5.75
2018-07-17T00:20:22.094Z,5.75
2018-07-17T00:20:34.495Z,5.75
2018-07-17T00:20:46.985Z,5.75
2018-07-17T00:20:59.386Z,5.75
2018-07-17T00:21:11.868Z,5.75
2018-07-17T00:21:24.315Z,5.75
2018-07-17T00:21:36.737Z,5.75
2018-07-17T00:21:49.162Z,5.75
2018-07-17T00:22:01.581Z,5.75
2018-07-17T00:22:13.980Z,5.75
2018-07-17T00:22:26.386Z,5.75
2018-07-17T00:22:38.793Z,5.75
2018-07-17T00:22:51.202Z,5.75
2018-07-17T00:23:03.604Z,5.75
2018-07-17T00:23:16.062Z,5.75
2018-07-17T00:23:28.464Z,5.75
2018-07-17T00:23:40.934Z,5.75
2018-07-17T00:23:53.362Z,5.75
2018-07-17T00:24:05.781Z,5.75
2018-07-17T00:24:18.190Z,5.75
2018-07-17T00:24:30.583Z,5.75
2018-07-17T00:24:42.982Z,5.75
2018-07-17T00:24:55.380Z,5.75
2018-07-17T00:25:07.814Z,5.75
2018-07-17T00:25:20.267Z,5.75
2018-07-17T00:25:32.684Z,5.75
2018-07-17T00:25:45.264Z,5.6
2018-07-17T00:25:57.678Z,5.6
2018-07-17T00:26:10.080Z,5.6
2018-07-17T00:26:22.482Z,5.6
2018-07-17T00:26:34.894Z,5.6
2018-07-17T00:26:47.323Z,5.6
2018-07-17T00:26:59.749Z,5.6
2018-07-17T00:27:12.155Z,5.6
2018-07-17T00:27:24.548Z,5.6
2018-07-17T00:27:36.965Z,5.6
2018-07-17T00:27:49.351Z,5.6
2018-07-17T00:28:01.751Z,5.6
2018-07-17T00:28:14.158Z,5.6
2018-07-17T00:28:26.575Z,5.6
2018-07-17T00:28:38.990Z,5.6
2018-07-17T00:28:51.399Z,5.6
2018-07-17T00:29:03.819Z,5.6
2018-07-17T00:29:16.231Z,5.6
2018-07-17T00:29:28.623Z,5.6
2018-07-17T00:29:41.174Z,5.6
2018-07-17T00:29:53.588Z,5.6
2018-07-17T00:30:06.011Z,5.6
2018-07-17T00:30:18.406Z,5.6
2018-07-17T00:30:30.804Z,5.6
2018-07-17T00:30:43.282Z,5.6
2018-07-17T00:30:55.715Z,5.6
2018-07-17T00:31:08.143Z,5.6
2018-07-17T00:31:20.714Z,5.6
2018-07-17T00:31:33.100Z,5.6
2018-07-17T00:31:45.506Z,5.6
2018-07-17T00:31:57.901Z,5.6
2018-07-17T00:32:10.320Z,5.6
2018-07-17T00:32:22.720Z,5.6
2018-07-17T00:32:35.125Z,5.6
2018-07-17T00:32:47.529Z,5.6
2018-07-17T00:32:59.940Z,5.6
2018-07-17T00:33:12.351Z,5.6
2018-07-17T00:33:24.796Z,5.6
2018-07-17T00:33:37.187Z,5.6
2018-07-17T00:33:49.583Z,5.6
2018-07-17T00:34:02.104Z,5.6
2018-07-17T00:34:14.510Z,5.6
2018-07-17T00:34:26.908Z,5.6
2018-07-17T00:34:39.324Z,5.6
2018-07-17T00:34:51.752Z,5.6
2018-07-17T00:35:04.197Z,5.6
2018-07-17T00:35:16.600Z,5.6
2018-07-17T00:35:28.985Z,5.6
2018-07-17T00:35:41.396Z,6.5
2018-07-17T00:35:53.824Z,6.5
2018-07-17T00:36:06.279Z,6.5
2018-07-17T00:36:18.708Z,6.5
2018-07-17T00:36:31.133Z,6.5
2018-07-17T00:36:43.521Z,6.5
2018-07-17T00:36:55.979Z,6.5
2018-07-17T00:37:08.383Z,6.5
2018-07-17T00:37:20.799Z,6.5
2018-07-17T00:37:33.188Z,6.5
2018-07-17T00:37:45.665Z,6.5
2018-07-17T00:37:58.109Z,6.5
2018-07-17T00:38:10.520Z,6.5
2018-07-17T00:38:22.916Z,6.5
2018-07-17T00:38:35.327Z,6.5
2018-07-17T00:38:47.706Z,6.5
2018-07-17T00:39:00.117Z,6.5
2018-07-17T00:39:12.598Z,6.5
2018-07-17T00:39:24.979Z,6.5
2018-07-17T00:39:37.413Z,6.5
2018-07-17T00:39:49.801Z,6.5
2018-07-17T00:40:02.206Z,6.5
2018-07-17T00:40:14.628Z,6.5
2018-07-17T00:40:27.089Z,6.5
2018-07-17T00:40:39.485Z,6.5
2018-07-17T00:40:51.885Z,6.5
2018-07-17T00:41:04.288Z,6.5
2018-07-17T00:41:16.708Z,6.5
2018-07-17T00:41:29.133Z,6.5
2018-07-17T00:41:41.561Z,6.5
2018-07-17T00:41:53.988Z,6.5
2018-07-17T00:42:06.401Z,6.5
2018-07-17T00:42:18.808Z,6.5
2018-07-17T00:42:31.237Z,6.5
2018-07-17T00:42:43.648Z,6.5
2018-07-17T00:42:56.071Z,6.5
2018-07-17T00:43:08.482Z,6.5
2018-07-17T00:43:20.900Z,6.5
2018-07-17T00:43:33.310Z,6.5
2018-07-17T00:43:45.715Z,6.5
2018-07-17T00:43:58.205Z,6.5
2018-07-17T00:44:10.709Z,6.5
2018-07-17T00:44:23.107Z,6.5
2018-07-17T00:44:35.512Z,6.5
2018-07-17T00:44:47.928Z,6.5
2018-07-17T00:45:00.336Z,6.5
2018-07-17T00:45:12.753Z,6.5
2018-07-17T00:45:25.172Z,6.5
2018-07-17T00:45:37.602Z,6.6
2018-07-17T00:45:50.004Z,6.6
2018-07-17T00:46:02.419Z,6.6
2018-07-17T00:46:14.825Z,6.6
2018-07-17T00:46:27.244Z,6.6
2018-07-17T00:46:39.644Z,6.6
2018-07-17T00:46:52.072Z,6.6
2018-07-17T00:47:04.487Z,6.6
2018-07-17T00:47:16.907Z,6.6
2018-07-17T00:47:29.312Z,6.6
2018-07-17T00:47:41.708Z,6.6
2018-07-17T00:47:54.107Z,6.6
2018-07-17T00:48:06.716Z,6.6
2018-07-17T00:48:19.138Z,6.6
2018-07-17T00:48:31.548Z,6.6
2018-07-17T00:48:43.958Z,6.6
2018-07-17T00:48:56.459Z,6.6
2018-07-17T00:49:08.856Z,6.6
2018-07-17T00:49:21.256Z,6.6
2018-07-17T00:49:33.736Z,6.6
2018-07-17T00:49:46.151Z,6.6
2018-07-17T00:49:58.559Z,6.6
2018-07-17T00:50:10.984Z,6.6
2018-07-17T00:50:23.378Z,6.6
2018-07-17T00:50:35.768Z,6.6
2018-07-17T00:50:48.184Z,6.6
2018-07-17T00:51:00.589Z,6.6
2018-07-17T00:51:13.065Z,6.6
2018-07-17T00:51:25.457Z,6.6
2018-07-17T00:51:37.860Z,6.6
2018-07-17T00:51:50.289Z,6.6
2018-07-17T00:52:02.694Z,6.6
2018-07-17T00:52:15.081Z,6.6
2018-07-17T00:52:27.494Z,6.6
2018-07-17T00:52:39.930Z,6.6
2018-07-17T00:52:52.534Z,6.6
2018-07-17T00:53:04.960Z,6.6
2018-07-17T00:53:17.373Z,6.6
2018-07-17T00:53:29.788Z,6.6
2018-07-17T00:53:42.325Z,6.6
2018-07-17T00:53:54.821Z,6.6
2018-07-17T00:54:07.243Z,6.6
2018-07-17T00:54:19.661Z,6.6
2018-07-17T00:54:32.068Z,6.6
2018-07-17T00:54:44.458Z,6.6
2018-07-17T00:54:56.942Z,6.6
2018-07-17T00:55:09.655Z,6.6
2018-07-17T00:55:22.122Z,6.6
2018-07-17T00:55:34.701Z,6.6
2018-07-17T00:55:48.012Z,6.25
2018-07-17T00:56:00.419Z,6.25
2018-07-17T00:56:12.811Z,6.25
2018-07-17T00:56:25.198Z,6.25
2018-07-17T00:56:37.614Z,6.25
2018-07-17T00:56:50.001Z,6.25
2018-07-17T00:57:02.414Z,6.25
2018-07-17T00:57:14.818Z,6.25
2018-07-17T00:57:27.248Z,6.25
2018-07-17T00:57:39.710Z,6.25
2018-07-17T00:57:52.172Z,6.25
2018-07-17T00:58:04.593Z,6.25
2018-07-17T00:58:17.027Z,6.25
2018-07-17T00:58:29.422Z,6.25
2018-07-17T00:58:41.825Z,6.25
2018-07-17T00:58:54.265Z,6.25
2018-07-17T00:59:06.667Z,6.25
2018-07-17T00:59:19.079Z,6.25
2018-07-17T00:59:31.499Z,6.25
2018-07-17T00:59:43.931Z,6.25
2018-07-17T00:59:56.355Z,6.25
2018-07-17T01:00:08.801Z,6.25
2018-07-17T01:00:21.397Z,6.25
2018-07-17T01:00:33.829Z,6.25
2018-07-17T01:00:46.237Z,6.25
2018-07-17T01:00:58.861Z,6.25
2018-07-17T01:01:12.404Z,6.25
2018-07-17T01:01:25.096Z,6.25
2018-07-17T01:01:37.511Z,6.25
2018-07-17T01:01:49.997Z,6.25
2018-07-17T01:02:02.580Z,6.25
2018-07-17T01:02:15.004Z,6.25
2018-07-17T01:02:27.466Z,6.25
2018-07-17T01:02:39.875Z,6.25
2018-07-17T01:02:52.304Z,6.25
2018-07-17T01:03:04.708Z,6.25
2018-07-17T01:03:17.144Z,6.25
2018-07-17T01:03:29.548Z,6.25
2018-07-17T01:03:42.078Z,6.25
2018-07-17T01:03:54.511Z,6.25
2018-07-17T01:04:06.983Z,6.25
2018-07-17T01:04:19.409Z,6.25
2018-07-17T01:04:31.834Z,6.25
2018-07-17T01:04:44.282Z,6.25
2018-07-17T01:04:56.929Z,6.25
2018-07-17T01:05:09.326Z,6.25
2018-07-17T01:05:21.728Z,6.25
2018-07-17T01:05:34.132Z,6.25
2018-07-17T01:05:46.562Z,7.21
2018-07-17T01:05:58.988Z,7.21
2018-07-17T01:06:11.456Z,7.21
2018-07-17T01:06:23.932Z,7.21
2018-07-17T01:06:36.346Z,7.21
2018-07-17T01:06:48.739Z,7.21
2018-07-17T01:07:01.496Z,7.21
2018-07-17T01:07:14.627Z,7.21
2018-07-17T01:07:27.616Z,7.21
2018-07-17T01:07:40.023Z,7.21
2018-07-17T01:07:52.437Z,7.21
2018-07-17T01:08:04.850Z,7.21
2018-07-17T01:08:17.244Z,7.21
2018-07-17T01:08:29.678Z,7.21
2018-07-17T01:08:42.084Z,7.21
2018-07-17T01:08:54.515Z,7.21
2018-07-17T01:09:06.915Z,7.21
2018-07-17T01:09:19.316Z,7.21
2018-07-17T01:09:31.712Z,7.21
2018-07-17T01:09:44.199Z,7.21
2018-07-17T01:09:56.616Z,7.21
2018-07-17T01:10:09.028Z,7.21
2018-07-17T01:10:21.432Z,7.21
2018-07-17T01:10:33.845Z,7.21
2018-07-17T01:10:46.245Z,7.21
2018-07-17T01:10:58.654Z,7.21
2018-07-17T01:11:11.063Z,7.21
2018-07-17T01:11:23.483Z,7.21
2018-07-17T01:11:35.930Z,7.21
2018-07-17T01:11:48.591Z,7.21
2018-07-17T01:12:01.002Z,7.21
2018-07-17T01:12:13.475Z,7.21
2018-07-17T01:12:25.868Z,7.21
2018-07-17T01:12:38.273Z,7.21
2018-07-17T01:12:50.746Z,7.21
2018-07-17T01:13:03.423Z,7.21
2018-07-17T01:13:15.831Z,7.21
2018-07-17T01:13:28.240Z,7.21
2018-07-17T01:13:40.649Z,7.21
2018-07-17T01:13:53.058Z,7.21
2018-07-17T01:14:05.453Z,7.21
2018-07-17T01:14:17.853Z,7.21
2018-07-17T01:14:30.254Z,7.21
2018-07-17T01:14:42.662Z,7.21
2018-07-17T01:14:55.077Z,7.21
2018-07-17T01:15:07.485Z,7.21
2018-07-17T01:15:19.941Z,7.21
2018-07-17T01:15:32.347Z,7.21
2018-07-17T01:15:44.758Z,6.42
2018-07-17T01:15:57.183Z,6.42
2018-07-17T01:16:09.604Z,6.42
2018-07-17T01:16:21.989Z,6.42
2018-07-17T01:16:34.391Z,6.42
2018-07-17T01:16:46.803Z,6.42
2018-07-17T01:16:59.201Z,6.42
2018-07-17T01:17:11.606Z,6.42
2018-07-17T01:17:24.008Z,6.42
2018-07-17T01:17:36.430Z,6.42
2018-07-17T01:17:49.027Z,6.42
2018-07-17T01:18:01.445Z,6.42
2018-07-17T01:18:13.849Z,6.42
2018-07-17T01:18:26.262Z,6.42
2018-07-17T01:18:38.664Z,6.42
2018-07-17T01:18:51.068Z,6.42
2018-07-17T01:19:03.477Z,6.42
2018-07-17T01:19:15.872Z,6.42
2018-07-17T01:19:28.428Z,6.42
2018-07-17T01:19:40.831Z,6.42
2018-07-17T01:19:53.227Z,6.42
2018-07-17T01:20:05.618Z,6.42
2018-07-17T01:20:18.014Z,6.42
2018-07-17T01:20:30.407Z,6.42
2018-07-17T01:20:42.900Z,6.42
2018-07-17T01:20:55.281Z,6.42
2018-07-17T01:21:07.681Z,6.42
2018-07-17T01:21:20.087Z,6.42
2018-07-17T01:21:32.505Z,6.42
2018-07-17T01:21:44.914Z,6.42
2018-07-17T01:21:57.307Z,6.42
2018-07-17T01:22:09.708Z,6.42
2018-07-17T01:22:22.092Z,6.42
2018-07-17T01:22:34.536Z,6.42
2018-07-17T01:22:46.928Z,6.42
2018-07-17T01:22:59.326Z,6.42
2018-07-17T01:23:11.814Z,6.42
2018-07-17T01:23:24.254Z,6.42
2018-07-17T01:23:36.675Z,6.42
2018-07-17T01:23:49.074Z,6.42
2018-07-17T01:24:01.478Z,6.42
2018-07-17T01:24:13.901Z,6.42
2018-07-17T01:24:26.294Z,6.42
2018-07-17T01:24:38.713Z,6.42
2018-07-17T01:24:51.141Z,6.42
2018-07-17T01:25:03.610Z,6.42
2018-07-17T01:25:16.013Z,6.42
2018-07-17T01:25:28.398Z,6.42
2018-07-17T01:25:40.962Z,6.24
2018-07-17T01:25:53.545Z,6.24
2018-07-17T01:26:05.953Z,6.24
2018-07-17T01:26:18.360Z,6.24
2018-07-17T01:26:30.763Z,6.24
2018-07-17T01:26:43.176Z,6.24
2018-07-17T01:26:55.589Z,6.24
2018-07-17T01:27:07.993Z,6.24
2018-07-17T01:27:20.395Z,6.24
2018-07-17T01:27:32.833Z,6.24
2018-07-17T01:27:45.234Z,6.24
2018-07-17T01:27:57.646Z,6.24
2018-07-17T01:28:10.101Z,6.24
2018-07-17T01:28:22.559Z,6.24
2018-07-17T01:28:34.960Z,6.24
2018-07-17T01:28:47.355Z,6.24
2018-07-17T01:28:59.736Z,6.24
2018-07-17T01:29:12.123Z,6.24
2018-07-17T01:29:24.498Z,6.24
2018-07-17T01:29:36.934Z,6.24
2018-07-17T01:29:49.495Z,6.24
2018-07-17T01:30:01.886Z,6.24
2018-07-17T01:30:14.297Z,6.24
2018-07-17T01:30:26.711Z,6.24
2018-07-17T01:30:39.116Z,6.24
2018-07-17T01:30:51.519Z,6.24
2018-07-17T01:31:03.924Z,6.24
2018-07-17T01:31:16.490Z,6.24
2018-07-17T01:31:28.892Z,6.24
2018-07-17T01:31:41.365Z,6.24
2018-07-17T01:31:53.854Z,6.24
2018-07-17T01:32:06.258Z,6.24
2018-07-17T01:32:18.659Z,6.24
2018-07-17T01:32:31.066Z,6.24
2018-07-17T01:32:43.467Z,6.24
2018-07-17T01:32:55.906Z,6.24
2018-07-17T01:33:08.313Z,6.24
2018-07-17T01:33:20.713Z,6.24
2018-07-17T01:33:33.124Z,6.24
2018-07-17T01:33:45.505Z,6.24
2018-07-17T01:33:57.976Z,6.24
2018-07-17T01:34:10.380Z,6.24
2018-07-17T01:34:22.778Z,6.24
2018-07-17T01:34:35.177Z,6.24
2018-07-17T01:34:47.557Z,6.24
2018-07-17T01:34:59.980Z,6.24
2018-07-17T01:35:12.385Z,6.24
2018-07-17T01:35:24.806Z,6.24
2018-07-17T01:35:37.219Z,6.24
2018-07-17T01:35:49.613Z,6.08
2018-07-17T01:36:02.036Z,6.08
2018-07-17T01:36:14.480Z,6.08
2018-07-17T01:36:26.884Z,6.08
2018-07-17T01:36:39.286Z,6.08
2018-07-17T01:36:51.668Z,6.08
2018-07-17T01:37:04.047Z,6.08
2018-07-17T01:37:16.451Z,6.08
2018-07-17T01:37:28.859Z,6.08
2018-07-17T01:37:41.255Z,6.08
2018-07-17T01:37:53.674Z,6.08
2018-07-17T01:38:06.075Z,6.08
2018-07-17T01:38:18.598Z,6.08
2018-07-17T01:38:31.824Z,6.08
2018-07-17T01:38:44.852Z,6.08
2018-07-17T01:38:57.288Z,6.08
2018-07-17T01:39:09.697Z,6.08
2018-07-17T01:39:22.114Z,6.08
2018-07-17T01:39:34.526Z,6.08
2018-07-17T01:39:46.920Z,6.08
2018-07-17T01:39:59.330Z,6.08
2018-07-17T01:40:11.759Z,6.08
2018-07-17T01:40:24.161Z,6.08
2018-07-17T01:40:36.558Z,6.08
2018-07-17T01:40:48.957Z,6.08
2018-07-17T01:41:01.347Z,6.08
2018-07-17T01:41:13.784Z,6.08
2018-07-17T01:41:26.202Z,6.08
2018-07-17T01:41:38.628Z,6.08
2018-07-17T01:41:51.038Z,6.08
2018-07-17T01:42:03.453Z,6.08
2018-07-17T01:42:15.871Z,6.08
2018-07-17T01:42:28.275Z,6.08
2018-07-17T01:42:40.683Z,6.08
2018-07-17T01:42:53.201Z,6.08
2018-07-17T01:43:06.437Z,6.08
2018-07-17T01:43:19.168Z,6.08
2018-07-17T01:43:31.591Z,6.08
2018-07-17T01:43:43.983Z,6.08
2018-07-17T01:43:56.438Z,6.08
2018-07-17T01:44:08.834Z,6.08
2018-07-17T01:44:21.244Z,6.08
2018-07-17T01:44:33.674Z,6.08
2018-07-17T01:44:46.081Z,6.08
2018-07-17T01:44:58.559Z,6.08
2018-07-17T01:45:11.007Z,6.08
2018-07-17T01:45:23.420Z,6.08
2018-07-17T01:45:35.884Z,6.08
2018-07-17T01:45:48.365Z,6.8
2018-07-17T01:46:00.817Z,6.8
2018-07-17T01:46:13.337Z,6.8
2018-07-17T01:46:25.753Z,6.8
2018-07-17T01:46:38.204Z,6.8
2018-07-17T01:46:50.617Z,6.8
2018-07-17T01:47:03.035Z,6.8
2018-07-17T01:47:15.431Z,6.8
2018-07-17T01:47:27.841Z,6.8
2018-07-17T01:47:40.245Z,6.8
2018-07-17T01:47:52.640Z,6.8
2018-07-17T01:48:05.092Z,6.8
2018-07-17T01:48:17.523Z,6.8
2018-07-17T01:48:29.928Z,6.8
2018-07-17T01:48:42.325Z,6.8
2018-07-17T01:48:54.853Z,6.8
2018-07-17T01:49:07.270Z,6.8
2018-07-17T01:49:19.669Z,6.8
2018-07-17T01:49:32.063Z,6.8
2018-07-17T01:49:44.490Z,6.8
2018-07-17T01:49:56.964Z,6.8
2018-07-17T01:50:09.372Z,6.8
2018-07-17T01:50:21.786Z,6.8
2018-07-17T01:50:34.194Z,6.8
2018-07-17T01:50:46.596Z,6.8
2018-07-17T01:50:58.991Z,6.8
2018-07-17T01:51:11.413Z,6.8
2018-07-17T01:51:24.070Z,6.8
2018-07-17T01:51:36.488Z,6.8
2018-07-17T01:51:48.907Z,6.8
2018-07-17T01:52:01.380Z,6.8
2018-07-17T01:52:13.780Z,6.8
2018-07-17T01:52:26.192Z,6.8
2018-07-17T01:52:38.594Z,6.8
2018-07-17T01:52:50.983Z,6.8
2018-07-17T01:53:03.391Z,6.8
2018-07-17T01:53:15.785Z,6.8
2018-07-17T01:53:28.214Z,6.8
2018-07-17T01:53:40.618Z,6.8
2018-07-17T01:53:53.045Z,6.8
2018-07-17T01:54:05.435Z,6.8
2018-07-17T01:54:17.822Z,6.8
2018-07-17T01:54:30.271Z,6.8
2018-07-17T01:54:42.695Z,6.8
2018-07-17T01:54:55.099Z,6.8
2018-07-17T01:55:07.649Z,6.8
2018-07-17T01:55:20.154Z,6.8
2018-07-17T01:55:32.545Z,6.8
2018-07-17T01:55:44.946Z,6.46
2018-07-17T01:55:57.331Z,6.46
2018-07-17T01:56:09.740Z,6.46
2018-07-17T01:56:22.143Z,6.46
2018-07-17T01:56:34.541Z,6.46
2018-07-17T01:56:46.979Z,6.46
2018-07-17T01:56:59.459Z,6.46
2018-07-17T01:57:11.870Z,6.46
2018-07-17T01:57:24.268Z,6.46
2018-07-17T01:57:36.716Z,6.46
2018-07-17T01:57:49.104Z,6.46
2018-07-17T01:58:01.551Z,6.46
2018-07-17T01:58:13.945Z,6.46
2018-07-17T01:58:26.364Z,6.46
2018-07-17T01:58:38.814Z,6.46
2018-07-17T01:58:51.203Z,6.46
2018-07-17T01:59:03.607Z,6.46
2018-07-17T01:59:16.044Z,6.46
2018-07-17T01:59:28.435Z,6.46
2018-07-17T01:59:40.851Z,6.46
2018-07-17T01:59:53.244Z,6.46
2018-07-17T02:00:05.713Z,6.46
2018-07-17T02:00:18.386Z,6.46
2018-07-17T02:00:30.799Z,6.46
2018-07-17T02:00:43.224Z,6.46
2018-07-17T02:00:55.695Z,6.46
2018-07-17T02:01:08.129Z,6.46
2018-07-17T02:01:20.567Z,6.46
2018-07-17T02:01:33.046Z,6.46
2018-07-17T02:01:45.469Z,6.46
2018-07-17T02:01:57.951Z,6.46
2018-07-17T02:02:10.381Z,6.46
2018-07-17T02:02:22.877Z,6.46
2018-07-17T02:02:35.350Z,6.46
2018-07-17T02:02:47.801Z,6.46
2018-07-17T02:03:00.251Z,6.46
2018-07-17T02:03:12.651Z,6.46
2018-07-17T02:03:25.063Z,6.46
2018-07-17T02:03:37.481Z,6.46
2018-07-17T02:03:49.896Z,6.46
2018-07-17T02:04:02.358Z,6.46
2018-07-17T02:04:14.777Z,6.46
2018-07-17T02:04:27.247Z,6.46
2018-07-17T02:04:39.694Z,6.46
2018-07-17T02:04:52.770Z,6.46
2018-07-17T02:05:06.285Z,6.46
2018-07-17T02:05:18.684Z,6.46
2018-07-17T02:05:31.082Z,6.46
2018-07-17T02:05:43.503Z,7.32
2018-07-17T02:05:55.914Z,7.32
2018-07-17T02:06:08.335Z,7.32
2018-07-17T02:06:20.766Z,7.32
2018-07-17T02:06:33.239Z,7.32
2018-07-17T02:06:45.637Z,7.32
2018-07-17T02:06:58.091Z,7.32
2018-07-17T02:07:10.478Z,7.32
2018-07-17T02:07:22.994Z,7.32
2018-07-17T02:07:35.384Z,7.32
2018-07-17T02:07:47.901Z,7.32
2018-07-17T02:08:00.285Z,7.32
2018-07-17T02:08:12.683Z,7.32
2018-07-17T02:08:25.063Z,7.32
2018-07-17T02:08:37.459Z,7.32
2018-07-17T02:08:49.850Z,7.32
2018-07-17T02:09:02.271Z,7.32
2018-07-17T02:09:14.692Z,7.32
2018-07-17T02:09:27.111Z,7.32
2018-07-17T02:09:39.541Z,7.32
2018-07-17T02:09:51.941Z,7.32
2018-07-17T02:10:04.336Z,7.32
2018-07-17T02:10:16.756Z,7.32
2018-07-17T02:10:29.168Z,7.32
2018-07-17T02:10:41.571Z,7.32
2018-07-17T02:10:53.977Z,7.32
2018-07-17T02:11:06.393Z,7.32
2018-07-17T02:11:18.783Z,7.32
2018-07-17T02:11:31.170Z,7.32
2018-07-17T02:11:43.573Z,7.32
2018-07-17T02:11:56.040Z,7.32
2018-07-17T02:12:08.454Z,7.32
2018-07-17T02:12:21.148Z,7.32
2018-07-17T02:12:33.549Z,7.32
2018-07-17T02:12:45.924Z,7.32
2018-07-17T02:12:58.410Z,7.32
2018-07-17T02:13:10.824Z,7.32
2018-07-17T02:13:23.233Z,7.32
2018-07-17T02:13:35.678Z,7.32
2018-07-17T02:13:48.075Z,7.32
2018-07-17T02:14:00.491Z,7.32
2018-07-17T02:14:12.916Z,7.32
2018-07-17T02:14:25.314Z,7.32
2018-07-17T02:14:37.709Z,7.32
2018-07-17T02:14:50.117Z,7.32
2018-07-17T02:15:02.530Z,7.32
2018-07-17T02:15:14.929Z,7.32
2018-07-17T02:15:27.339Z,7.32
2018-07-17T02:15:39.752Z,7.32
2018-07-17T02:15:52.146Z,7.14
2018-07-17T02:16:04.548Z,7.14
2018-07-17T02:16:16.967Z,7.14
2018-07-17T02:16:29.363Z,7.14
2018-07-17T02:16:41.759Z,7.14
2018-07-17T02:16:54.178Z,7.14
2018-07-17T02:17:06.597Z,7.14
2018-07-17T02:17:19.011Z,7.14
2018-07-17T02:17:31.423Z,7.14
2018-07-17T02:17:43.822Z,7.14
2018-07-17T02:17:56.229Z,7.14
2018-07-17T02:18:08.694Z,7.14
2018-07-17T02:18:21.111Z,7.14
2018-07-17T02:18:33.556Z,7.14
2018-07-17T02:18:46.513Z,7.14
2018-07-17T02:18:59.716Z,7.14
2018-07-17T02:19:12.126Z,7.14
2018-07-17T02:19:24.540Z,7.14
2018-07-17T02:19:36.957Z,7.14
2018-07-17T02:19:49.381Z,7.14
2018-07-17T02:20:01.854Z,7.14
2018-07-17T02:20:14.259Z,7.14
2018-07-17T02:20:26.648Z,7.14
2018-07-17T02:20:39.168Z,7.14
2018-07-17T02:20:51.573Z,7.14
2018-07-17T02:21:03.979Z,7.14
2018-07-17T02:21:16.375Z,7.14
2018-07-17T02:21:28.771Z,7.14
2018-07-17T02:21:41.191Z,7.14
2018-07-17T02:21:53.606Z,7.14
2018-07-17T02:22:06.020Z,7.14
2018-07-17T02:22:18.414Z,7.14
2018-07-17T02:22:30.860Z,7.14
2018-07-17T02:22:43.247Z,7.14
2018-07-17T02:22:55.689Z,7.14
2018-07-17T02:23:08.107Z,7.14
2018-07-17T02:23:20.493Z,7.14
2018-07-17T02:23:32.892Z,7.14
2018-07-17T02:23:45.274Z,7.14
2018-07-17T02:23:57.669Z,7.14
2018-07-17T02:24:10.063Z,7.14
2018-07-17T02:24:22.477Z,7.14
2018-07-17T02:24:34.863Z,7.14
2018-07-17T02:24:47.264Z,7.14
2018-07-17T02:24:59.684Z,7.14
2018-07-17T02:25:12.098Z,7.14
2018-07-17T02:25:24.505Z,7.14
2018-07-17T02:25:37.029Z,7.14
2018-07-17T02:25:49.572Z,8.1
2018-07-17T02:26:02.089Z,8.1
2018-07-17T02:26:14.559Z,8.1
2018-07-17T02:26:26.965Z,8.1
2018-07-17T02:26:39.366Z,8.1
2018-07-17T02:26:51.798Z,8.1
2018-07-17T02:27:04.278Z,8.1
2018-07-17T02:27:16.731Z,8.1
2018-07-17T02:27:29.132Z,8.1
2018-07-17T02:27:41.539Z,8.1
2018-07-17T02:27:53.942Z,8.1
2018-07-17T02:28:06.370Z,8.1
2018-07-17T02:28:18.766Z,8.1
2018-07-17T02:28:31.177Z,8.1
2018-07-17T02:28:43.565Z,8.1
2018-07-17T02:28:55.965Z,8.1
2018-07-17T02:29:08.375Z,8.1
2018-07-17T02:29:20.789Z,8.1
2018-07-17T02:29:33.184Z,8.1
2018-07-17T02:29:45.755Z,8.1
2018-07-17T02:29:58.164Z,8.1
2018-07-17T02:30:10.585Z,8.1
2018-07-17T02:30:23.113Z,8.1
2018-07-17T02:30:35.540Z,8.1
2018-07-17T02:30:47.992Z,8.1
2018-07-17T02:31:00.425Z,8.1
2018-07-17T02:31:13.096Z,8.1
2018-07-17T02:31:25.594Z,8.1
2018-07-17T02:31:38.049Z,8.1
2018-07-17T02:31:50.493Z,8.1
2018-07-17T02:32:02.931Z,8.1
2018-07-17T02:32:15.467Z,8.1
2018-07-17T02:32:27.930Z,8.1
2018-07-17T02:32:40.356Z,8.1
2018-07-17T02:32:52.782Z,8.1
2018-07-17T02:33:05.276Z,8.1
2018-07-17T02:33:17.712Z,8.1
2018-07-17T02:33:30.128Z,8.1
2018-07-17T02:33:42.566Z,8.1
2018-07-17T02:33:55.082Z,8.1
2018-07-17T02:34:07.505Z,8.1
2018-07-17T02:34:19.979Z,8.1
2018-07-17T02:34:32.400Z,8.1
2018-07-17T02:34:44.832Z,8.1
2018-07-17T02:34:57.296Z,8.1
2018-07-17T02:35:09.705Z,8.1
2018-07-17T02:35:22.135Z,8.1
2018-07-17T02:35:34.563Z,8.1
2018-07-17T02:35:46.991Z,7.28
2018-07-17T02:35:59.400Z,7.28
2018-07-17T02:36:11.823Z,7.28
2018-07-17T02:36:24.265Z,7.28
2018-07-17T02:36:36.745Z,7.28
2018-07-17T02:36:49.172Z,7.28
2018-07-17T02:37:01.595Z,7.28
2018-07-17T02:37:14.027Z,7.28
2018-07-17T02:37:26.466Z,7.28
2018-07-17T02:37:38.903Z,7.28
2018-07-17T02:37:51.354Z,7.28
2018-07-17T02:38:03.782Z,7.28
2018-07-17T02:38:16.222Z,7.28
2018-07-17T02:38:28.654Z,7.28
2018-07-17T02:38:41.115Z,7.28
2018-07-17T02:38:53.557Z,7.28
2018-07-17T02:39:06.008Z,7.28
2018-07-17T02:39:18.447Z,7.28
2018-07-17T02:39:30.919Z,7.28
2018-07-17T02:39:43.354Z,7.28
2018-07-17T02:39:55.793Z,7.28
2018-07-17T02:40:08.228Z,7.28
2018-07-17T02:40:20.663Z,7.28
2018-07-17T02:40:33.099Z,7.28
2018-07-17T02:40:45.513Z,7.28
2018-07-17T02:40:57.978Z,7.28
2018-07-17T02:41:10.418Z,7.28
2018-07-17T02:41:22.841Z,7.28
2018-07-17T02:41:35.343Z,7.28
2018-07-17T02:41:47.802Z,7.28
2018-07-17T02:42:00.241Z,7.28
2018-07-17T02:42:12.932Z,7.28
2018-07-17T02:42:26.376Z,7.28
2018-07-17T02:42:39.629Z,7.28
2018-07-17T02:42:52.074Z,7.28
2018-07-17T02:43:04.628Z,7.28
2018-07-17T02:43:17.070Z,7.28
2018-07-17T02:43:29.533Z,7.28
2018-07-17T02:43:41.945Z,7.28
2018-07-17T02:43:54.351Z,7.28
2018-07-17T02:44:06.775Z,7.28
2018-07-17T02:44:19.213Z,7.28
2018-07-17T02:44:31.712Z,7.28
2018-07-17T02:44:44.166Z,7.28
2018-07-17T02:44:56.608Z,7.28
2018-07-17T02:45:09.085Z,7.28
2018-07-17T02:45:21.499Z,7.28
2018-07-17T02:45:33.968Z,7.28
2018-07-17T02:45:46.404Z,7.75
2018-07-17T02:45:58.850Z,7.75
2018-07-17T02:46:11.367Z,7.75
2018-07-17T02:46:23.784Z,7.75
2018-07-17T02:46:36.235Z,7.75
2018-07-17T02:46:48.740Z,7.75
2018-07-17T02:47:01.163Z,7.75
2018-07-17T02:47:13.629Z,7.75
2018-07-17T02:47:26.154Z,7.75
2018-07-17T02:47:38.607Z,7.75